HRGA4: Little River, Horatio, AR

                                SHEF ID:       HRGA4     Little River near Horatio, AR
STATION TYPE: Stream Gauge
Regulating: Stage = 21.50, Flow = 17539

PRECIP STAGE RIV-FLOW BAT-LOAD
in ft cfs volt
Ccp-Rev Ccp-Rev Ccp-Rev Ccp-Rev
(America/Chicago)
04/28 00:00 0.00 6.79 1650 12.54
04/28 01:00 0.00 6.74 1616 12.53
04/28 02:00 0.00 6.69 1582 12.51
04/28 03:00 0.00 6.65 1555 12.50
04/28 04:00 0.00 6.63 1542 12.47
04/28 05:00 0.00 6.71 1596 12.46
04/28 06:00 0.00 6.97 1775 12.44
04/28 07:00 0.00 7.33 2033 12.43
04/28 08:00 0.00 7.64 2264 12.44
04/28 09:00 0.00 7.86 2432 12.50
04/28 10:00 0.00 7.99 2533 12.56
04/28 11:00 0.01 8.05 2581 12.54
04/28 12:00 0.01 8.06 2589 12.69
04/28 13:00 0.02 8.03 2565 12.57
04/28 14:00 0.00 7.99 2533 13.21
04/28 15:00 0.00 7.93 2487 13.22
04/28 16:00 0.00 7.87 2440 12.95
04/28 17:00 0.01 7.83 2409 12.74
04/28 18:00 0.01 7.78 2370 12.63
04/28 19:00 1.14 7.84 2417 12.60
04/28 20:00 0.00 7.84 2417 12.65
04/28 21:00 0.00 7.85 2424 12.57
04/28 22:00 0.00 7.90 2463 12.53
04/28 23:00 0.00 7.98 2526 12.50
Data processed at Wed 29Apr2026 04:10 GMT

NOTICE: If you are parsing this page

Please convert to using our Data API. Starting early 2026 we will be migrating to: https://water.usace.army.mil with modern pages rendered in JavaScript. When this migration completes you will no longer be able to scrape this page! CWMSDataAPI (CDA)

Timeseries IDs (TSIDs)

TSIDs used from left to right in the data table
HORA.Precip-Inc.Total.1Hour.1Hour.Ccp-Rev
HORA.Stage.Inst.1Hour.0.Ccp-Rev
HORA.Flow.Inst.1Hour.0.Ccp-Rev
HORA.Volt-Battery Load.Inst.1Hour.0.Ccp-Rev

                            

All information presented herein is the property of the government of the United States of America and may be revised or deleted at any time without prior notice. Dissemination of this information without the expressed written consent of the Public Affairs Office, Tulsa District U.S. Army Corps of Engineers is strictly prohibited. These data are gathered electronically and, as presented, have NOT undergone any form of quality control. These data are NOT guaranteed to be valid or correct.